Varmdo — SMXZ — position and weather

sailwx.info

Track history (hours):
 
Tides and Currents Weather Stations Pressure Air Temp Water Temp Dewpoint Dewpoint Depression Visibility Wind Speed Wind Dir Waves Ship Positions

Varmdo

Last reported at 2016-Dec-11 03:32 UTC. Time now 2016-Dec-11 04:21 UTC.
Position N 59°20' E 018°04'.

Length 38 m; draft 2.5 m.

Type: Passenger vessel. MMSI: 265520390.

Date/timePositionNaut miles runAvg speedWind from/ knotsBaromVisibWave heightAir tempDewpointWater temp
2016-Dec-11 03:32N 59°20' E 018°04'0 0.0
2016-Dec-11 02:32N 59°20' E 018°04'0 0.0
2016-Dec-11 01:26N 59°20' E 018°04'0 0.0
2016-Dec-11 00:32N 59°20' E 018°04'0 0.0
2016-Dec-10 23:26N 59°20' E 018°04'0 0.0
2016-Dec-10 22:32N 59°20' E 018°04'0 0.0
2016-Dec-10 21:32N 59°20' E 018°04'0 0.0
2016-Dec-10 20:32N 59°20' E 018°04'0 0.0
2016-Dec-10 19:32N 59°20' E 018°04'0 0.0
2016-Dec-10 18:32N 59°20' E 018°04'0 0.0
2016-Dec-10 17:32N 59°20' E 018°04'10 1.1
2016-Dec-10 08:29N 59°24' E 018°21'1010.4
2016-Dec-10 07:34N 59°20' E 018°05'0 0.2
2016-Dec-10 06:30N 59°20' E 018°05'0 0.0
2016-Dec-10 05:30N 59°20' E 018°05'0 0.0
2016-Dec-10 04:30N 59°20' E 018°05'0 0.0
2016-Dec-10 03:30N 59°20' E 018°05'0 0.0
2016-Dec-10 02:30N 59°20' E 018°05'0 0.0
2016-Dec-10 01:30N 59°20' E 018°05'0 0.0
2016-Dec-10 00:30N 59°20' E 018°05'0 0.0
2016-Dec-09 23:30N 59°20' E 018°05'0 0.0
2016-Dec-09 22:30N 59°20' E 018°05'5 5.8
2016-Dec-09 21:33N 59°22' E 018°15'4 1.1
2016-Dec-09 17:31N 59°24' E 018°21'1010.1
2016-Dec-09 16:33N 59°19' E 018°05'0 0.3
2016-Dec-09 15:29N 59°20' E 018°04'0 0.0
2016-Dec-09 14:29N 59°20' E 018°04'0 0.0
2016-Dec-09 13:30N 59°20' E 018°04'0 0.0
2016-Dec-09 12:30N 59°20' E 018°04'0 0.0
2016-Dec-09 11:30N 59°20' E 018°04'0 0.0
2016-Dec-09 10:30N 59°20' E 018°04'0 0.0
2016-Dec-09 09:30N 59°20' E 018°04'5 5.5
2016-Dec-09 08:33N 59°21' E 018°14'5 0.1
2016-Dec-07 15:14N 59°25' E 018°21'5 7.8
2016-Dec-07 14:33N 59°21' E 018°14'5 4.8
2016-Dec-07 13:28N 59°20' E 018°05'0 0.0
2016-Dec-07 12:28N 59°20' E 018°05'0 0.0
2016-Dec-07 11:28N 59°20' E 018°05'0 0.0
2016-Dec-07 10:28N 59°20' E 018°05'0 0.0
2016-Dec-07 09:28N 59°20' E 018°05'0 0.0
2016-Dec-07 08:28N 59°20' E 018°05'0 0.0
2016-Dec-07 07:28N 59°20' E 018°05'3 3.0
2016-Dec-07 06:33N 59°19' E 018°10'8 7.8
2016-Dec-07 05:33N 59°24' E 018°22'1 0.1
2016-Dec-06 18:31N 59°24' E 018°21'1 0.9
2016-Dec-06 17:29N 59°23' E 018°20'9 9.6
2016-Dec-06 16:33N 59°19' E 018°05'0 0.3
2016-Dec-06 15:32N 59°20' E 018°05'0 0.0
2016-Dec-06 14:32N 59°20' E 018°05'0 0.0
2016-Dec-06 13:32N 59°20' E 018°05'0 0.0
2016-Dec-06 12:32N 59°20' E 018°05'0 0.0
2016-Dec-06 11:32N 59°20' E 018°05'0 0.0
2016-Dec-06 10:32N 59°20' E 018°05'0 0.0
2016-Dec-06 09:32N 59°20' E 018°05'5 5.4
2016-Dec-06 08:33N 59°21' E 018°14'5 0.1
2016-Dec-04 17:31N 59°25' E 018°21'9 9.2
2016-Dec-04 16:33N 59°19' E 018°09'4 3.5
2016-Dec-04 15:33N 59°21' E 018°14'5 0.6
2016-Dec-04 08:30N 59°24' E 018°21'1010.2
2016-Dec-04 07:33N 59°19' E 018°05'0 0.4
2016-Dec-04 06:33N 59°20' E 018°04'0 0.0
2016-Dec-04 05:33N 59°20' E 018°04'0 0.0
2016-Dec-04 04:33N 59°20' E 018°04'0 0.0
2016-Dec-04 03:33N 59°20' E 018°04'0 0.0
2016-Dec-04 02:33N 59°20' E 018°04'0 0.0
2016-Dec-04 01:33N 59°20' E 018°04'0 0.0
2016-Dec-04 00:33N 59°20' E 018°04'0 0.0
2016-Dec-03 23:33N 59°20' E 018°04'0 0.0
2016-Dec-03 22:33N 59°20' E 018°04'0 0.0
2016-Dec-03 21:33N 59°20' E 018°04'0 0.0
2016-Dec-03 20:33N 59°20' E 018°04'0 0.0
2016-Dec-03 19:33N 59°20' E 018°04'0 0.0
2016-Dec-03 18:33N 59°20' E 018°04'0 0.0
2016-Dec-03 17:33N 59°20' E 018°04'10 9.0
2016-Dec-03 16:29N 59°24' E 018°21'0 0.0
2016-Dec-03 08:28N 59°24' E 018°21'1010.7
2016-Dec-03 07:33N 59°19' E 018°05'0 0.4
2016-Dec-03 06:32N 59°20' E 018°05'0 0.0
2016-Dec-03 05:32N 59°20' E 018°05'0 0.0
2016-Dec-03 04:33N 59°20' E 018°05'0 0.0
2016-Dec-03 03:32N 59°20' E 018°05'0 0.0
2016-Dec-03 02:32N 59°20' E 018°05'0 0.0
2016-Dec-03 01:33N 59°20' E 018°05'0 0.0
2016-Dec-03 00:33N 59°20' E 018°05'0 0.0
2016-Dec-02 23:33N 59°20' E 018°05'0 0.0
2016-Dec-02 22:33N 59°20' E 018°05'5 5.5
2016-Dec-02 21:33N 59°21' E 018°15'4 1.0
2016-Dec-02 17:31N 59°24' E 018°21'1010.0
2016-Dec-02 16:33N 59°19' E 018°05'0 0.3
2016-Dec-02 15:30N 59°20' E 018°04'0 0.0
2016-Dec-02 14:30N 59°20' E 018°04'0 0.0
2016-Dec-02 13:31N 59°20' E 018°04'0 0.0
2016-Dec-02 12:31N 59°20' E 018°04'0 0.0
2016-Dec-02 11:30N 59°20' E 018°04'0 0.0
2016-Dec-02 10:31N 59°20' E 018°04'0 0.0
2016-Dec-02 09:31N 59°20' E 018°04'6 5.8
2016-Dec-02 08:33N 59°22' E 018°15'  
Track history (hours):
 
Tides and Currents Weather Stations Pressure Air Temp Water Temp Dewpoint Dewpoint Depression Visibility Wind Speed Wind Dir Waves Ship Positions

Varmdo

Last reported at 2016-Dec-11 03:32 UTC. Time now 2016-Dec-11 04:21 UTC.
Position N 59°20' E 018°04'.

Length 38 m; draft 2.5 m.

Type: Passenger vessel. MMSI: 265520390.

Date/timePositionNaut miles runAvg speedWind from/ knotsBaromVisibWave heightAir tempDewpointWater temp
2016-Dec-11 03:32N 59°20' E 018°04'0 0.0
2016-Dec-11 02:32N 59°20' E 018°04'0 0.0
2016-Dec-11 01:26N 59°20' E 018°04'0 0.0
2016-Dec-11 00:32N 59°20' E 018°04'0 0.0
2016-Dec-10 23:26N 59°20' E 018°04'0 0.0
2016-Dec-10 22:32N 59°20' E 018°04'0 0.0
2016-Dec-10 21:32N 59°20' E 018°04'0 0.0
2016-Dec-10 20:32N 59°20' E 018°04'0 0.0
2016-Dec-10 19:32N 59°20' E 018°04'0 0.0
2016-Dec-10 18:32N 59°20' E 018°04'0 0.0
2016-Dec-10 17:32N 59°20' E 018°04'10 1.1
2016-Dec-10 08:29N 59°24' E 018°21'1010.4
2016-Dec-10 07:34N 59°20' E 018°05'0 0.2
2016-Dec-10 06:30N 59°20' E 018°05'0 0.0
2016-Dec-10 05:30N 59°20' E 018°05'0 0.0
2016-Dec-10 04:30N 59°20' E 018°05'0 0.0
2016-Dec-10 03:30N 59°20' E 018°05'0 0.0
2016-Dec-10 02:30N 59°20' E 018°05'0 0.0
2016-Dec-10 01:30N 59°20' E 018°05'0 0.0
2016-Dec-10 00:30N 59°20' E 018°05'0 0.0
2016-Dec-09 23:30N 59°20' E 018°05'0 0.0
2016-Dec-09 22:30N 59°20' E 018°05'5 5.8
2016-Dec-09 21:33N 59°22' E 018°15'4 1.1
2016-Dec-09 17:31N 59°24' E 018°21'1010.1
2016-Dec-09 16:33N 59°19' E 018°05'0 0.3
2016-Dec-09 15:29N 59°20' E 018°04'0 0.0
2016-Dec-09 14:29N 59°20' E 018°04'0 0.0
2016-Dec-09 13:30N 59°20' E 018°04'0 0.0
2016-Dec-09 12:30N 59°20' E 018°04'0 0.0
2016-Dec-09 11:30N 59°20' E 018°04'0 0.0
2016-Dec-09 10:30N 59°20' E 018°04'0 0.0
2016-Dec-09 09:30N 59°20' E 018°04'5 5.5
2016-Dec-09 08:33N 59°21' E 018°14'5 0.1
2016-Dec-07 15:14N 59°25' E 018°21'5 7.8
2016-Dec-07 14:33N 59°21' E 018°14'5 4.8
2016-Dec-07 13:28N 59°20' E 018°05'0 0.0
2016-Dec-07 12:28N 59°20' E 018°05'0 0.0
2016-Dec-07 11:28N 59°20' E 018°05'0 0.0
2016-Dec-07 10:28N 59°20' E 018°05'0 0.0
2016-Dec-07 09:28N 59°20' E 018°05'0 0.0
2016-Dec-07 08:28N 59°20' E 018°05'0 0.0
2016-Dec-07 07:28N 59°20' E 018°05'3 3.0
2016-Dec-07 06:33N 59°19' E 018°10'8 7.8
2016-Dec-07 05:33N 59°24' E 018°22'1 0.1
2016-Dec-06 18:31N 59°24' E 018°21'1 0.9
2016-Dec-06 17:29N 59°23' E 018°20'9 9.6
2016-Dec-06 16:33N 59°19' E 018°05'0 0.3
2016-Dec-06 15:32N 59°20' E 018°05'0 0.0
2016-Dec-06 14:32N 59°20' E 018°05'0 0.0
2016-Dec-06 13:32N 59°20' E 018°05'0 0.0
2016-Dec-06 12:32N 59°20' E 018°05'0 0.0
2016-Dec-06 11:32N 59°20' E 018°05'0 0.0
2016-Dec-06 10:32N 59°20' E 018°05'0 0.0
2016-Dec-06 09:32N 59°20' E 018°05'5 5.4
2016-Dec-06 08:33N 59°21' E 018°14'5 0.1
2016-Dec-04 17:31N 59°25' E 018°21'9 9.2
2016-Dec-04 16:33N 59°19' E 018°09'4 3.5
2016-Dec-04 15:33N 59°21' E 018°14'5 0.6
2016-Dec-04 08:30N 59°24' E 018°21'1010.2
2016-Dec-04 07:33N 59°19' E 018°05'0 0.4
2016-Dec-04 06:33N 59°20' E 018°04'0 0.0
2016-Dec-04 05:33N 59°20' E 018°04'0 0.0
2016-Dec-04 04:33N 59°20' E 018°04'0 0.0
2016-Dec-04 03:33N 59°20' E 018°04'0 0.0
2016-Dec-04 02:33N 59°20' E 018°04'0 0.0
2016-Dec-04 01:33N 59°20' E 018°04'0 0.0
2016-Dec-04 00:33N 59°20' E 018°04'0 0.0
2016-Dec-03 23:33N 59°20' E 018°04'0 0.0
2016-Dec-03 22:33N 59°20' E 018°04'0 0.0
2016-Dec-03 21:33N 59°20' E 018°04'0 0.0
2016-Dec-03 20:33N 59°20' E 018°04'0 0.0
2016-Dec-03 19:33N 59°20' E 018°04'0 0.0
2016-Dec-03 18:33N 59°20' E 018°04'0 0.0
2016-Dec-03 17:33N 59°20' E 018°04'10 9.0
2016-Dec-03 16:29N 59°24' E 018°21'0 0.0
2016-Dec-03 08:28N 59°24' E 018°21'1010.7
2016-Dec-03 07:33N 59°19' E 018°05'0 0.4
2016-Dec-03 06:32N 59°20' E 018°05'0 0.0
2016-Dec-03 05:32N 59°20' E 018°05'0 0.0
2016-Dec-03 04:33N 59°20' E 018°05'0 0.0
2016-Dec-03 03:32N 59°20' E 018°05'0 0.0
2016-Dec-03 02:32N 59°20' E 018°05'0 0.0
2016-Dec-03 01:33N 59°20' E 018°05'0 0.0
2016-Dec-03 00:33N 59°20' E 018°05'0 0.0
2016-Dec-02 23:33N 59°20' E 018°05'0 0.0
2016-Dec-02 22:33N 59°20' E 018°05'5 5.5
2016-Dec-02 21:33N 59°21' E 018°15'4 1.0
2016-Dec-02 17:31N 59°24' E 018°21'1010.0
2016-Dec-02 16:33N 59°19' E 018°05'0 0.3
2016-Dec-02 15:30N 59°20' E 018°04'0 0.0
2016-Dec-02 14:30N 59°20' E 018°04'0 0.0
2016-Dec-02 13:31N 59°20' E 018°04'0 0.0
2016-Dec-02 12:31N 59°20' E 018°04'0 0.0
2016-Dec-02 11:30N 59°20' E 018°04'0 0.0
2016-Dec-02 10:31N 59°20' E 018°04'0 0.0
2016-Dec-02 09:31N 59°20' E 018°04'6 5.8
2016-Dec-02 08:33N 59°22' E 018°15'  

Dump ship's entire track history